Villa del Rio, Puerto Rico
Current Conditions -  °F | °C
As of 6:50 PM on Thursday 18 Dec 2014 (Local Time) from TJBQ Reporting Station
Broken Clouds Broken Clouds  
Wind Chill: 73°   Ceiling: 3100
Heat Index: 73°   Visibility: 10mi
Dew Point: 70°   Wind: 17mph
Humidity: 88%   Direction: 70°ENE
Pressure: 30.01"   Gusts: 26mph
Location:  18.0206°N, 66.7913°W
Report Text: TJBQ 182250Z 07015G23KT 10SM SCT018 SCT026 BKN031 23/21 A3001 -RA RMK RWY08 ATIS C
Loading
Personal Weather Stations






























Interactive Weather Map New forecast layout! Learn more

10-Day Weather Forecast

Advertisements
Track Severe Weather on mobile